sensor_id;sensor_type;location;lat;lon;timestamp;P1;durP1;ratioP1;P2;durP2;ratioP2
12603;SDS011;6367;52.508;13.284;2023-12-20T00:00:05;4.20;;;3.90;;
12603;SDS011;6367;52.508;13.284;2023-12-20T00:02:31;4.27;;;3.87;;
12603;SDS011;6367;52.508;13.284;2023-12-20T00:04:56;4.33;;;3.93;;
12603;SDS011;6367;52.508;13.284;2023-12-20T00:07:22;4.60;;;4.30;;
12603;SDS011;6367;52.508;13.284;2023-12-20T00:09:48;4.30;;;4.00;;
12603;SDS011;6367;52.508;13.284;2023-12-20T00:12:13;3.70;;;3.37;;
12603;SDS011;6367;52.508;13.284;2023-12-20T00:14:39;3.73;;;3.53;;
12603;SDS011;6367;52.508;13.284;2023-12-20T00:17:05;4.27;;;3.97;;
12603;SDS011;6367;52.508;13.284;2023-12-20T00:19:30;4.27;;;3.97;;
12603;SDS011;6367;52.508;13.284;2023-12-20T00:21:56;3.90;;;3.60;;
12603;SDS011;6367;52.508;13.284;2023-12-20T00:24:22;3.53;;;3.33;;
12603;SDS011;6367;52.508;13.284;2023-12-20T00:26:47;5.07;;;4.60;;
12603;SDS011;6367;52.508;13.284;2023-12-20T00:29:13;3.60;;;3.40;;
12603;SDS011;6367;52.508;13.284;2023-12-20T00:31:38;4.50;;;4.10;;
12603;SDS011;6367;52.508;13.284;2023-12-20T00:34:04;4.47;;;3.97;;
12603;SDS011;6367;52.508;13.284;2023-12-20T00:36:30;4.53;;;4.13;;
12603;SDS011;6367;52.508;13.284;2023-12-20T00:38:55;4.40;;;4.10;;
12603;SDS011;6367;52.508;13.284;2023-12-20T00:41:22;4.10;;;3.80;;
12603;SDS011;6367;52.508;13.284;2023-12-20T00:43:47;3.97;;;3.67;;
12603;SDS011;6367;52.508;13.284;2023-12-20T00:46:13;4.00;;;3.70;;
12603;SDS011;6367;52.508;13.284;2023-12-20T00:48:39;4.20;;;3.90;;
12603;SDS011;6367;52.508;13.284;2023-12-20T00:51:07;4.00;;;3.70;;
12603;SDS011;6367;52.508;13.284;2023-12-20T00:53:33;3.50;;;3.30;;
12603;SDS011;6367;52.508;13.284;2023-12-20T00:55:58;3.40;;;3.20;;
12603;SDS011;6367;52.508;13.284;2023-12-20T00:58:24;3.93;;;3.63;;
12603;SDS011;6367;52.508;13.284;2023-12-20T01:00:50;4.57;;;3.67;;
12603;SDS011;6367;52.508;13.284;2023-12-20T01:03:16;4.10;;;3.80;;
12603;SDS011;6367;52.508;13.284;2023-12-20T01:05:41;4.00;;;3.60;;
12603;SDS011;6367;52.508;13.284;2023-12-20T01:08:07;3.90;;;3.60;;
12603;SDS011;6367;52.508;13.284;2023-12-20T01:10:33;4.07;;;3.73;;
12603;SDS011;6367;52.508;13.284;2023-12-20T01:12:58;3.60;;;3.40;;
12603;SDS011;6367;52.508;13.284;2023-12-20T01:15:24;4.90;;;4.50;;
12603;SDS011;6367;52.508;13.284;2023-12-20T01:17:49;4.20;;;3.90;;
12603;SDS011;6367;52.508;13.284;2023-12-20T01:20:16;4.80;;;4.50;;
12603;SDS011;6367;52.508;13.284;2023-12-20T01:22:42;4.90;;;4.40;;
12603;SDS011;6367;52.508;13.284;2023-12-20T01:25:08;4.63;;;4.23;;
12603;SDS011;6367;52.508;13.284;2023-12-20T01:27:33;4.47;;;4.17;;
12603;SDS011;6367;52.508;13.284;2023-12-20T01:29:59;4.80;;;4.40;;
12603;SDS011;6367;52.508;13.284;2023-12-20T01:32:25;4.00;;;3.70;;
12603;SDS011;6367;52.508;13.284;2023-12-20T01:34:50;4.53;;;4.13;;
12603;SDS011;6367;52.508;13.284;2023-12-20T01:37:16;3.40;;;3.20;;
12603;SDS011;6367;52.508;13.284;2023-12-20T01:39:42;4.67;;;4.27;;
12603;SDS011;6367;52.508;13.284;2023-12-20T01:42:07;3.87;;;3.57;;
12603;SDS011;6367;52.508;13.284;2023-12-20T01:44:33;4.17;;;3.87;;
12603;SDS011;6367;52.508;13.284;2023-12-20T01:46:59;3.73;;;3.43;;
12603;SDS011;6367;52.508;13.284;2023-12-20T01:49:25;3.50;;;3.27;;
12603;SDS011;6367;52.508;13.284;2023-12-20T01:51:51;4.00;;;3.80;;
12603;SDS011;6367;52.508;13.284;2023-12-20T01:54:17;4.03;;;3.73;;
12603;SDS011;6367;52.508;13.284;2023-12-20T01:56:44;4.53;;;3.87;;
12603;SDS011;6367;52.508;13.284;2023-12-20T01:59:10;3.87;;;3.60;;
12603;SDS011;6367;52.508;13.284;2023-12-20T02:01:36;3.93;;;3.63;;
12603;SDS011;6367;52.508;13.284;2023-12-20T02:04:02;4.27;;;3.97;;
12603;SDS011;6367;52.508;13.284;2023-12-20T02:06:29;3.60;;;3.30;;
12603;SDS011;6367;52.508;13.284;2023-12-20T02:08:58;3.80;;;3.57;;
12603;SDS011;6367;52.508;13.284;2023-12-20T02:11:24;3.93;;;3.70;;
12603;SDS011;6367;52.508;13.284;2023-12-20T02:13:51;4.10;;;3.80;;
12603;SDS011;6367;52.508;13.284;2023-12-20T02:16:16;4.03;;;3.73;;
12603;SDS011;6367;52.508;13.284;2023-12-20T02:18:42;3.67;;;3.37;;
12603;SDS011;6367;52.508;13.284;2023-12-20T02:21:11;3.50;;;3.30;;
12603;SDS011;6367;52.508;13.284;2023-12-20T02:23:37;3.33;;;3.13;;
12603;SDS011;6367;52.508;13.284;2023-12-20T02:26:03;3.90;;;3.60;;
12603;SDS011;6367;52.508;13.284;2023-12-20T02:28:31;4.17;;;3.87;;
12603;SDS011;6367;52.508;13.284;2023-12-20T02:30:57;5.23;;;4.83;;
12603;SDS011;6367;52.508;13.284;2023-12-20T02:33:23;5.07;;;4.67;;
12603;SDS011;6367;52.508;13.284;2023-12-20T02:35:48;4.93;;;4.57;;
12603;SDS011;6367;52.508;13.284;2023-12-20T02:38:15;4.63;;;4.33;;
12603;SDS011;6367;52.508;13.284;2023-12-20T02:40:40;5.87;;;5.30;;
12603;SDS011;6367;52.508;13.284;2023-12-20T02:43:06;5.10;;;4.70;;
12603;SDS011;6367;52.508;13.284;2023-12-20T02:45:32;5.47;;;5.03;;
12603;SDS011;6367;52.508;13.284;2023-12-20T02:47:57;5.53;;;5.13;;
12603;SDS011;6367;52.508;13.284;2023-12-20T02:50:23;7.40;;;5.83;;
12603;SDS011;6367;52.508;13.284;2023-12-20T02:52:48;5.83;;;5.33;;
12603;SDS011;6367;52.508;13.284;2023-12-20T02:55:14;5.67;;;5.17;;
12603;SDS011;6367;52.508;13.284;2023-12-20T02:57:40;5.10;;;4.77;;
12603;SDS011;6367;52.508;13.284;2023-12-20T03:00:07;6.07;;;5.47;;
12603;SDS011;6367;52.508;13.284;2023-12-20T03:02:34;5.97;;;5.40;;
12603;SDS011;6367;52.508;13.284;2023-12-20T03:05:00;5.03;;;4.63;;
12603;SDS011;6367;52.508;13.284;2023-12-20T03:07:26;4.73;;;4.33;;
12603;SDS011;6367;52.508;13.284;2023-12-20T03:09:52;7.00;;;4.87;;
12603;SDS011;6367;52.508;13.284;2023-12-20T03:12:17;5.80;;;4.20;;
12603;SDS011;6367;52.508;13.284;2023-12-20T03:14:43;4.83;;;4.33;;
12603;SDS011;6367;52.508;13.284;2023-12-20T03:17:09;4.77;;;4.27;;
12603;SDS011;6367;52.508;13.284;2023-12-20T03:19:35;6.27;;;4.17;;
12603;SDS011;6367;52.508;13.284;2023-12-20T03:22:01;4.30;;;3.50;;
12603;SDS011;6367;52.508;13.284;2023-12-20T03:24:26;4.80;;;4.40;;
12603;SDS011;6367;52.508;13.284;2023-12-20T03:26:52;4.60;;;3.63;;
12603;SDS011;6367;52.508;13.284;2023-12-20T03:29:18;4.37;;;3.23;;
12603;SDS011;6367;52.508;13.284;2023-12-20T03:31:44;5.27;;;3.20;;
12603;SDS011;6367;52.508;13.284;2023-12-20T03:34:10;3.73;;;3.43;;
12603;SDS011;6367;52.508;13.284;2023-12-20T03:36:36;4.30;;;3.30;;
12603;SDS011;6367;52.508;13.284;2023-12-20T03:39:02;4.40;;;3.40;;
12603;SDS011;6367;52.508;13.284;2023-12-20T03:41:28;4.53;;;2.33;;
12603;SDS011;6367;52.508;13.284;2023-12-20T03:43:54;4.10;;;2.57;;
12603;SDS011;6367;52.508;13.284;2023-12-20T03:46:20;3.43;;;2.33;;
12603;SDS011;6367;52.508;13.284;2023-12-20T03:48:46;5.60;;;2.60;;
12603;SDS011;6367;52.508;13.284;2023-12-20T03:51:12;7.60;;;2.23;;
12603;SDS011;6367;52.508;13.284;2023-12-20T03:53:37;2.30;;;2.10;;
12603;SDS011;6367;52.508;13.284;2023-12-20T03:56:04;8.60;;;2.90;;
12603;SDS011;6367;52.508;13.284;2023-12-20T03:58:30;4.67;;;2.23;;
12603;SDS011;6367;52.508;13.284;2023-12-20T04:00:56;3.33;;;1.97;;
12603;SDS011;6367;52.508;13.284;2023-12-20T04:03:21;5.07;;;2.20;;
12603;SDS011;6367;52.508;13.284;2023-12-20T04:05:47;7.33;;;2.40;;
12603;SDS011;6367;52.508;13.284;2023-12-20T04:08:13;5.30;;;2.03;;
12603;SDS011;6367;52.508;13.284;2023-12-20T04:10:38;3.63;;;1.80;;
12603;SDS011;6367;52.508;13.284;2023-12-20T04:13:04;6.83;;;2.30;;
12603;SDS011;6367;52.508;13.284;2023-12-20T04:15:29;5.33;;;1.70;;
12603;SDS011;6367;52.508;13.284;2023-12-20T04:17:55;4.57;;;2.17;;
12603;SDS011;6367;52.508;13.284;2023-12-20T04:20:21;3.80;;;2.37;;
12603;SDS011;6367;52.508;13.284;2023-12-20T04:22:46;10.00;;;2.47;;
12603;SDS011;6367;52.508;13.284;2023-12-20T04:25:12;5.77;;;2.30;;
12603;SDS011;6367;52.508;13.284;2023-12-20T04:27:38;3.67;;;2.00;;
12603;SDS011;6367;52.508;13.284;2023-12-20T04:30:04;5.63;;;2.00;;
12603;SDS011;6367;52.508;13.284;2023-12-20T04:32:30;7.97;;;2.20;;
12603;SDS011;6367;52.508;13.284;2023-12-20T04:34:56;10.43;;;2.47;;
12603;SDS011;6367;52.508;13.284;2023-12-20T04:37:22;4.60;;;1.93;;
12603;SDS011;6367;52.508;13.284;2023-12-20T04:39:47;7.03;;;2.20;;
12603;SDS011;6367;52.508;13.284;2023-12-20T04:42:13;5.50;;;2.17;;
12603;SDS011;6367;52.508;13.284;2023-12-20T04:44:39;4.10;;;1.70;;
12603;SDS011;6367;52.508;13.284;2023-12-20T04:47:04;4.70;;;1.70;;
12603;SDS011;6367;52.508;13.284;2023-12-20T04:49:30;7.70;;;1.90;;
12603;SDS011;6367;52.508;13.284;2023-12-20T04:51:56;4.13;;;1.93;;
12603;SDS011;6367;52.508;13.284;2023-12-20T04:54:21;6.73;;;1.80;;
12603;SDS011;6367;52.508;13.284;2023-12-20T04:56:47;3.20;;;1.70;;
12603;SDS011;6367;52.508;13.284;2023-12-20T04:59:13;5.70;;;2.67;;
12603;SDS011;6367;52.508;13.284;2023-12-20T05:01:38;4.87;;;1.80;;
12603;SDS011;6367;52.508;13.284;2023-12-20T05:04:04;2.33;;;1.67;;
12603;SDS011;6367;52.508;13.284;2023-12-20T05:06:30;6.70;;;2.37;;
12603;SDS011;6367;52.508;13.284;2023-12-20T05:08:55;3.50;;;1.80;;
12603;SDS011;6367;52.508;13.284;2023-12-20T05:11:21;6.03;;;1.87;;
12603;SDS011;6367;52.508;13.284;2023-12-20T05:13:47;8.60;;;2.43;;
12603;SDS011;6367;52.508;13.284;2023-12-20T05:16:12;9.10;;;2.30;;
12603;SDS011;6367;52.508;13.284;2023-12-20T05:18:39;3.93;;;2.30;;
12603;SDS011;6367;52.508;13.284;2023-12-20T05:21:05;5.23;;;1.87;;
12603;SDS011;6367;52.508;13.284;2023-12-20T05:23:31;3.57;;;1.20;;
12603;SDS011;6367;52.508;13.284;2023-12-20T05:25:57;3.80;;;2.17;;
12603;SDS011;6367;52.508;13.284;2023-12-20T05:28:24;6.57;;;2.27;;
12603;SDS011;6367;52.508;13.284;2023-12-20T05:30:49;3.60;;;1.43;;
12603;SDS011;6367;52.508;13.284;2023-12-20T05:33:15;3.30;;;1.60;;
12603;SDS011;6367;52.508;13.284;2023-12-20T05:35:40;7.00;;;1.57;;
12603;SDS011;6367;52.508;13.284;2023-12-20T05:38:06;6.40;;;1.73;;
12603;SDS011;6367;52.508;13.284;2023-12-20T05:40:32;7.93;;;1.93;;
12603;SDS011;6367;52.508;13.284;2023-12-20T05:42:57;5.63;;;1.47;;
12603;SDS011;6367;52.508;13.284;2023-12-20T05:45:23;4.17;;;1.73;;
12603;SDS011;6367;52.508;13.284;2023-12-20T05:47:49;9.10;;;3.27;;
12603;SDS011;6367;52.508;13.284;2023-12-20T05:50:14;3.63;;;1.60;;
12603;SDS011;6367;52.508;13.284;2023-12-20T05:52:40;4.03;;;1.60;;
12603;SDS011;6367;52.508;13.284;2023-12-20T05:55:06;8.20;;;1.80;;
12603;SDS011;6367;52.508;13.284;2023-12-20T05:57:32;6.90;;;2.00;;
12603;SDS011;6367;52.508;13.284;2023-12-20T05:59:57;3.63;;;1.50;;
12603;SDS011;6367;52.508;13.284;2023-12-20T06:02:23;4.60;;;1.83;;
12603;SDS011;6367;52.508;13.284;2023-12-20T06:04:48;8.73;;;2.13;;
12603;SDS011;6367;52.508;13.284;2023-12-20T06:07:14;7.27;;;1.70;;
12603;SDS011;6367;52.508;13.284;2023-12-20T06:09:41;3.40;;;1.70;;
12603;SDS011;6367;52.508;13.284;2023-12-20T06:12:07;3.87;;;2.10;;
12603;SDS011;6367;52.508;13.284;2023-12-20T06:14:36;3.87;;;1.57;;
12603;SDS011;6367;52.508;13.284;2023-12-20T06:17:02;4.73;;;2.10;;
12603;SDS011;6367;52.508;13.284;2023-12-20T06:19:27;8.73;;;2.07;;
12603;SDS011;6367;52.508;13.284;2023-12-20T06:21:53;8.33;;;3.07;;
12603;SDS011;6367;52.508;13.284;2023-12-20T06:24:19;11.50;;;2.43;;
12603;SDS011;6367;52.508;13.284;2023-12-20T06:26:46;5.40;;;1.80;;
12603;SDS011;6367;52.508;13.284;2023-12-20T06:29:12;4.80;;;1.80;;
12603;SDS011;6367;52.508;13.284;2023-12-20T06:31:37;8.57;;;2.20;;
12603;SDS011;6367;52.508;13.284;2023-12-20T06:34:03;4.97;;;1.40;;
12603;SDS011;6367;52.508;13.284;2023-12-20T06:36:29;2.67;;;1.87;;
12603;SDS011;6367;52.508;13.284;2023-12-20T06:38:54;7.57;;;2.10;;
12603;SDS011;6367;52.508;13.284;2023-12-20T06:41:20;7.93;;;2.00;;
12603;SDS011;6367;52.508;13.284;2023-12-20T06:43:46;5.57;;;1.97;;
12603;SDS011;6367;52.508;13.284;2023-12-20T06:46:12;3.20;;;1.57;;
12603;SDS011;6367;52.508;13.284;2023-12-20T06:48:38;7.37;;;1.87;;
12603;SDS011;6367;52.508;13.284;2023-12-20T06:51:05;8.07;;;2.27;;
12603;SDS011;6367;52.508;13.284;2023-12-20T06:53:30;6.80;;;2.30;;
12603;SDS011;6367;52.508;13.284;2023-12-20T06:55:56;7.90;;;1.70;;
12603;SDS011;6367;52.508;13.284;2023-12-20T06:58:22;3.60;;;1.90;;
12603;SDS011;6367;52.508;13.284;2023-12-20T07:00:48;7.23;;;2.00;;
12603;SDS011;6367;52.508;13.284;2023-12-20T07:03:14;5.50;;;1.93;;
12603;SDS011;6367;52.508;13.284;2023-12-20T07:05:40;6.87;;;2.63;;
12603;SDS011;6367;52.508;13.284;2023-12-20T07:08:06;4.10;;;1.70;;
12603;SDS011;6367;52.508;13.284;2023-12-20T07:10:32;3.87;;;2.10;;
12603;SDS011;6367;52.508;13.284;2023-12-20T07:12:58;7.23;;;1.83;;
12603;SDS011;6367;52.508;13.284;2023-12-20T07:15:23;6.20;;;2.20;;
12603;SDS011;6367;52.508;13.284;2023-12-20T07:17:49;6.23;;;1.60;;
12603;SDS011;6367;52.508;13.284;2023-12-20T07:20:15;4.43;;;2.50;;
12603;SDS011;6367;52.508;13.284;2023-12-20T07:22:40;6.83;;;2.23;;
12603;SDS011;6367;52.508;13.284;2023-12-20T07:25:06;11.27;;;2.70;;
12603;SDS011;6367;52.508;13.284;2023-12-20T07:27:32;5.50;;;1.97;;
12603;SDS011;6367;52.508;13.284;2023-12-20T07:29:59;4.83;;;1.90;;
12603;SDS011;6367;52.508;13.284;2023-12-20T07:32:25;5.83;;;2.03;;
12603;SDS011;6367;52.508;13.284;2023-12-20T07:34:50;5.10;;;1.73;;
12603;SDS011;6367;52.508;13.284;2023-12-20T07:37:16;6.60;;;2.17;;
12603;SDS011;6367;52.508;13.284;2023-12-20T07:39:41;6.00;;;2.43;;
12603;SDS011;6367;52.508;13.284;2023-12-20T07:42:07;8.23;;;1.93;;
12603;SDS011;6367;52.508;13.284;2023-12-20T07:44:34;12.77;;;2.57;;
12603;SDS011;6367;52.508;13.284;2023-12-20T07:47:01;3.80;;;1.90;;
12603;SDS011;6367;52.508;13.284;2023-12-20T07:49:27;4.63;;;2.00;;
12603;SDS011;6367;52.508;13.284;2023-12-20T07:51:53;10.13;;;2.50;;
12603;SDS011;6367;52.508;13.284;2023-12-20T07:54:18;5.43;;;2.10;;
12603;SDS011;6367;52.508;13.284;2023-12-20T07:56:45;7.37;;;2.00;;
12603;SDS011;6367;52.508;13.284;2023-12-20T07:59:11;6.43;;;1.80;;
12603;SDS011;6367;52.508;13.284;2023-12-20T08:01:37;4.53;;;1.67;;
12603;SDS011;6367;52.508;13.284;2023-12-20T08:04:02;4.83;;;1.80;;
12603;SDS011;6367;52.508;13.284;2023-12-20T08:06:28;7.40;;;2.23;;
12603;SDS011;6367;52.508;13.284;2023-12-20T08:08:54;5.90;;;1.80;;
12603;SDS011;6367;52.508;13.284;2023-12-20T08:11:19;5.43;;;1.73;;
12603;SDS011;6367;52.508;13.284;2023-12-20T08:13:45;4.83;;;2.00;;
12603;SDS011;6367;52.508;13.284;2023-12-20T08:16:11;5.07;;;1.80;;
12603;SDS011;6367;52.508;13.284;2023-12-20T08:18:38;7.90;;;2.10;;
12603;SDS011;6367;52.508;13.284;2023-12-20T08:21:04;9.07;;;1.83;;
12603;SDS011;6367;52.508;13.284;2023-12-20T08:23:32;3.93;;;1.80;;
12603;SDS011;6367;52.508;13.284;2023-12-20T08:25:58;4.93;;;1.77;;
12603;SDS011;6367;52.508;13.284;2023-12-20T08:28:28;7.33;;;2.50;;
12603;SDS011;6367;52.508;13.284;2023-12-20T08:30:54;7.67;;;1.87;;
12603;SDS011;6367;52.508;13.284;2023-12-20T08:33:19;6.67;;;2.13;;
12603;SDS011;6367;52.508;13.284;2023-12-20T08:35:45;5.93;;;1.90;;
12603;SDS011;6367;52.508;13.284;2023-12-20T08:38:11;7.37;;;1.70;;
12603;SDS011;6367;52.508;13.284;2023-12-20T08:40:37;4.80;;;1.80;;
12603;SDS011;6367;52.508;13.284;2023-12-20T08:43:02;8.20;;;2.23;;
12603;SDS011;6367;52.508;13.284;2023-12-20T08:45:28;5.40;;;2.13;;
12603;SDS011;6367;52.508;13.284;2023-12-20T08:47:54;5.63;;;2.07;;
12603;SDS011;6367;52.508;13.284;2023-12-20T08:50:19;6.30;;;1.70;;
12603;SDS011;6367;52.508;13.284;2023-12-20T08:52:45;5.00;;;2.13;;
12603;SDS011;6367;52.508;13.284;2023-12-20T08:55:11;7.30;;;2.27;;
12603;SDS011;6367;52.508;13.284;2023-12-20T08:57:37;4.43;;;1.90;;
12603;SDS011;6367;52.508;13.284;2023-12-20T09:00:03;4.53;;;2.10;;
12603;SDS011;6367;52.508;13.284;2023-12-20T09:02:29;7.93;;;1.80;;
12603;SDS011;6367;52.508;13.284;2023-12-20T09:04:55;7.50;;;1.77;;
12603;SDS011;6367;52.508;13.284;2023-12-20T09:07:21;6.63;;;1.50;;
12603;SDS011;6367;52.508;13.284;2023-12-20T09:09:51;7.23;;;2.47;;
12603;SDS011;6367;52.508;13.284;2023-12-20T09:12:17;6.80;;;1.97;;
12603;SDS011;6367;52.508;13.284;2023-12-20T09:14:47;5.53;;;1.77;;
12603;SDS011;6367;52.508;13.284;2023-12-20T09:17:14;4.80;;;1.80;;
12603;SDS011;6367;52.508;13.284;2023-12-20T09:19:41;6.80;;;1.60;;
12603;SDS011;6367;52.508;13.284;2023-12-20T09:22:08;7.47;;;1.77;;
12603;SDS011;6367;52.508;13.284;2023-12-20T09:24:34;7.20;;;2.37;;
12603;SDS011;6367;52.508;13.284;2023-12-20T09:26:59;7.50;;;1.60;;
12603;SDS011;6367;52.508;13.284;2023-12-20T09:29:25;6.83;;;2.73;;
12603;SDS011;6367;52.508;13.284;2023-12-20T09:31:51;10.20;;;1.83;;
12603;SDS011;6367;52.508;13.284;2023-12-20T09:34:16;7.30;;;2.03;;
12603;SDS011;6367;52.508;13.284;2023-12-20T09:36:42;5.57;;;2.10;;
12603;SDS011;6367;52.508;13.284;2023-12-20T09:39:18;6.50;;;2.23;;
12603;SDS011;6367;52.508;13.284;2023-12-20T09:41:45;9.00;;;1.80;;
12603;SDS011;6367;52.508;13.284;2023-12-20T09:44:31;6.00;;;1.67;;
12603;SDS011;6367;52.508;13.284;2023-12-20T09:47:05;8.33;;;2.07;;
12603;SDS011;6367;52.508;13.284;2023-12-20T09:49:31;6.60;;;2.00;;
12603;SDS011;6367;52.508;13.284;2023-12-20T09:51:58;14.87;;;3.27;;
12603;SDS011;6367;52.508;13.284;2023-12-20T09:54:25;5.83;;;1.90;;
12603;SDS011;6367;52.508;13.284;2023-12-20T09:56:53;8.63;;;2.03;;
12603;SDS011;6367;52.508;13.284;2023-12-20T09:59:19;10.37;;;2.17;;
12603;SDS011;6367;52.508;13.284;2023-12-20T10:01:45;7.93;;;2.40;;
12603;SDS011;6367;52.508;13.284;2023-12-20T10:04:11;6.37;;;2.20;;
12603;SDS011;6367;52.508;13.284;2023-12-20T10:06:39;7.87;;;2.10;;
12603;SDS011;6367;52.508;13.284;2023-12-20T10:09:05;8.23;;;2.30;;
12603;SDS011;6367;52.508;13.284;2023-12-20T10:11:31;6.00;;;2.03;;
12603;SDS011;6367;52.508;13.284;2023-12-20T10:14:00;7.40;;;1.83;;
12603;SDS011;6367;52.508;13.284;2023-12-20T10:16:26;7.93;;;1.90;;
12603;SDS011;6367;52.508;13.284;2023-12-20T10:18:53;8.53;;;2.03;;
12603;SDS011;6367;52.508;13.284;2023-12-20T10:21:20;5.37;;;2.13;;
12603;SDS011;6367;52.508;13.284;2023-12-20T10:23:47;4.43;;;1.97;;
12603;SDS011;6367;52.508;13.284;2023-12-20T10:26:48;5.50;;;2.13;;
12603;SDS011;6367;52.508;13.284;2023-12-20T10:29:06;7.40;;;2.50;;
12603;SDS011;6367;52.508;13.284;2023-12-20T10:31:33;5.27;;;2.20;;
12603;SDS011;6367;52.508;13.284;2023-12-20T10:34:00;10.10;;;2.50;;
12603;SDS011;6367;52.508;13.284;2023-12-20T10:36:30;8.23;;;2.00;;
12603;SDS011;6367;52.508;13.284;2023-12-20T10:38:57;6.23;;;2.47;;
12603;SDS011;6367;52.508;13.284;2023-12-20T10:41:27;8.97;;;2.50;;
12603;SDS011;6367;52.508;13.284;2023-12-20T10:43:55;5.20;;;1.60;;
12603;SDS011;6367;52.508;13.284;2023-12-20T10:46:29;10.93;;;2.87;;
12603;SDS011;6367;52.508;13.284;2023-12-20T10:48:56;6.10;;;2.03;;
12603;SDS011;6367;52.508;13.284;2023-12-20T10:51:22;8.23;;;2.47;;
12603;SDS011;6367;52.508;13.284;2023-12-20T10:53:49;6.80;;;2.50;;
12603;SDS011;6367;52.508;13.284;2023-12-20T10:56:19;9.20;;;2.70;;
12603;SDS011;6367;52.508;13.284;2023-12-20T10:58:46;5.87;;;1.93;;
12603;SDS011;6367;52.508;13.284;2023-12-20T11:01:13;7.87;;;1.90;;
12603;SDS011;6367;52.508;13.284;2023-12-20T11:03:42;10.90;;;3.20;;
12603;SDS011;6367;52.508;13.284;2023-12-20T11:08:51;5.63;;;2.27;;
12603;SDS011;6367;52.508;13.284;2023-12-20T11:20:03;11.57;;;2.67;;
12603;SDS011;6367;52.508;13.284;2023-12-20T11:22:31;4.73;;;2.00;;
12603;SDS011;6367;52.508;13.284;2023-12-20T11:25:08;8.47;;;2.40;;
12603;SDS011;6367;52.508;13.284;2023-12-20T11:27:35;7.10;;;2.30;;
12603;SDS011;6367;52.508;13.284;2023-12-20T11:30:03;8.50;;;2.70;;
12603;SDS011;6367;52.508;13.284;2023-12-20T11:32:33;9.80;;;2.17;;
12603;SDS011;6367;52.508;13.284;2023-12-20T11:35:01;4.70;;;2.13;;
12603;SDS011;6367;52.508;13.284;2023-12-20T11:37:43;5.87;;;2.13;;
12603;SDS011;6367;52.508;13.284;2023-12-20T11:40:12;7.87;;;2.37;;
12603;SDS011;6367;52.508;13.284;2023-12-20T11:42:48;4.87;;;2.20;;
12603;SDS011;6367;52.508;13.284;2023-12-20T11:45:15;7.13;;;3.00;;
12603;SDS011;6367;52.508;13.284;2023-12-20T11:47:49;6.43;;;2.50;;
12603;SDS011;6367;52.508;13.284;2023-12-20T11:50:16;10.50;;;3.13;;
12603;SDS011;6367;52.508;13.284;2023-12-20T11:52:42;5.33;;;1.90;;
12603;SDS011;6367;52.508;13.284;2023-12-20T11:55:08;6.37;;;2.80;;
12603;SDS011;6367;52.508;13.284;2023-12-20T11:57:34;7.67;;;1.83;;
12603;SDS011;6367;52.508;13.284;2023-12-20T12:00:01;4.53;;;2.17;;
12603;SDS011;6367;52.508;13.284;2023-12-20T12:02:28;10.87;;;2.70;;
12603;SDS011;6367;52.508;13.284;2023-12-20T12:04:54;7.77;;;2.30;;
12603;SDS011;6367;52.508;13.284;2023-12-20T12:07:21;6.30;;;2.37;;
12603;SDS011;6367;52.508;13.284;2023-12-20T12:09:47;11.37;;;2.57;;
12603;SDS011;6367;52.508;13.284;2023-12-20T12:12:13;6.67;;;3.00;;
12603;SDS011;6367;52.508;13.284;2023-12-20T12:14:39;7.40;;;2.13;;
12603;SDS011;6367;52.508;13.284;2023-12-20T12:17:10;6.40;;;2.77;;
12603;SDS011;6367;52.508;13.284;2023-12-20T12:19:37;4.20;;;2.50;;
12603;SDS011;6367;52.508;13.284;2023-12-20T12:22:10;7.83;;;2.20;;
12603;SDS011;6367;52.508;13.284;2023-12-20T12:24:42;3.70;;;1.90;;
12603;SDS011;6367;52.508;13.284;2023-12-20T12:27:08;7.07;;;1.80;;
12603;SDS011;6367;52.508;13.284;2023-12-20T12:29:35;8.63;;;2.30;;
12603;SDS011;6367;52.508;13.284;2023-12-20T12:32:02;8.93;;;1.90;;
12603;SDS011;6367;52.508;13.284;2023-12-20T12:34:36;8.37;;;2.00;;
12603;SDS011;6367;52.508;13.284;2023-12-20T12:37:03;6.77;;;2.37;;
12603;SDS011;6367;52.508;13.284;2023-12-20T12:39:29;7.47;;;2.40;;
12603;SDS011;6367;52.508;13.284;2023-12-20T12:41:55;4.63;;;2.20;;
12603;SDS011;6367;52.508;13.284;2023-12-20T12:44:22;7.00;;;2.17;;
12603;SDS011;6367;52.508;13.284;2023-12-20T12:46:51;5.90;;;2.00;;
12603;SDS011;6367;52.508;13.284;2023-12-20T12:49:18;8.90;;;2.10;;
12603;SDS011;6367;52.508;13.284;2023-12-20T12:51:47;11.83;;;2.40;;
12603;SDS011;6367;52.508;13.284;2023-12-20T12:54:13;10.23;;;2.90;;
12603;SDS011;6367;52.508;13.284;2023-12-20T12:56:40;7.17;;;2.30;;
12603;SDS011;6367;52.508;13.284;2023-12-20T12:59:06;4.77;;;2.20;;
12603;SDS011;6367;52.508;13.284;2023-12-20T13:01:32;7.40;;;2.53;;
12603;SDS011;6367;52.508;13.284;2023-12-20T13:03:58;4.73;;;2.93;;
12603;SDS011;6367;52.508;13.284;2023-12-20T13:06:23;7.70;;;2.80;;
12603;SDS011;6367;52.508;13.284;2023-12-20T13:08:49;7.67;;;2.90;;
12603;SDS011;6367;52.508;13.284;2023-12-20T13:11:15;5.37;;;2.17;;
12603;SDS011;6367;52.508;13.284;2023-12-20T13:13:41;6.43;;;2.57;;
12603;SDS011;6367;52.508;13.284;2023-12-20T13:16:07;7.17;;;2.70;;
12603;SDS011;6367;52.508;13.284;2023-12-20T13:18:33;5.50;;;2.77;;
12603;SDS011;6367;52.508;13.284;2023-12-20T13:20:59;9.13;;;2.50;;
12603;SDS011;6367;52.508;13.284;2023-12-20T13:23:24;10.07;;;3.33;;
12603;SDS011;6367;52.508;13.284;2023-12-20T13:25:50;4.70;;;1.60;;
12603;SDS011;6367;52.508;13.284;2023-12-20T13:28:16;3.17;;;1.60;;
12603;SDS011;6367;52.508;13.284;2023-12-20T13:30:42;4.43;;;1.40;;
12603;SDS011;6367;52.508;13.284;2023-12-20T13:33:08;2.10;;;1.07;;
12603;SDS011;6367;52.508;13.284;2023-12-20T13:35:33;2.50;;;1.07;;
12603;SDS011;6367;52.508;13.284;2023-12-20T13:37:59;1.80;;;1.00;;
12603;SDS011;6367;52.508;13.284;2023-12-20T13:40:25;1.13;;;0.90;;
12603;SDS011;6367;52.508;13.284;2023-12-20T13:42:51;3.20;;;0.80;;
12603;SDS011;6367;52.508;13.284;2023-12-20T13:45:17;0.93;;;0.70;;
12603;SDS011;6367;52.508;13.284;2023-12-20T13:47:42;1.20;;;1.03;;
12603;SDS011;6367;52.508;13.284;2023-12-20T13:50:08;1.50;;;0.90;;
12603;SDS011;6367;52.508;13.284;2023-12-20T13:52:34;3.33;;;1.30;;
12603;SDS011;6367;52.508;13.284;2023-12-20T13:55:00;1.83;;;1.10;;
12603;SDS011;6367;52.508;13.284;2023-12-20T13:57:26;3.43;;;1.10;;
12603;SDS011;6367;52.508;13.284;2023-12-20T13:59:54;3.70;;;1.40;;
12603;SDS011;6367;52.508;13.284;2023-12-20T14:02:22;2.17;;;1.00;;
12603;SDS011;6367;52.508;13.284;2023-12-20T14:04:47;5.23;;;1.30;;
12603;SDS011;6367;52.508;13.284;2023-12-20T14:07:13;3.73;;;1.20;;
12603;SDS011;6367;52.508;13.284;2023-12-20T14:09:39;2.40;;;1.00;;
12603;SDS011;6367;52.508;13.284;2023-12-20T14:12:10;1.77;;;1.10;;
12603;SDS011;6367;52.508;13.284;2023-12-20T14:14:38;1.33;;;0.90;;
12603;SDS011;6367;52.508;13.284;2023-12-20T14:17:04;2.00;;;0.93;;
12603;SDS011;6367;52.508;13.284;2023-12-20T14:19:33;2.33;;;0.80;;
12603;SDS011;6367;52.508;13.284;2023-12-20T14:21:58;1.20;;;0.70;;
12603;SDS011;6367;52.508;13.284;2023-12-20T14:24:28;1.00;;;0.70;;
12603;SDS011;6367;52.508;13.284;2023-12-20T14:26:53;3.90;;;0.70;;
12603;SDS011;6367;52.508;13.284;2023-12-20T14:29:19;1.53;;;1.03;;
12603;SDS011;6367;52.508;13.284;2023-12-20T14:31:45;0.83;;;0.83;;
12603;SDS011;6367;52.508;13.284;2023-12-20T14:34:10;0.90;;;0.60;;
12603;SDS011;6367;52.508;13.284;2023-12-20T14:36:36;0.90;;;0.70;;
12603;SDS011;6367;52.508;13.284;2023-12-20T14:39:02;2.03;;;0.80;;
12603;SDS011;6367;52.508;13.284;2023-12-20T14:41:30;1.33;;;0.63;;
12603;SDS011;6367;52.508;13.284;2023-12-20T14:43:56;0.77;;;0.77;;
12603;SDS011;6367;52.508;13.284;2023-12-20T14:46:21;0.83;;;0.60;;
12603;SDS011;6367;52.508;13.284;2023-12-20T14:48:47;3.50;;;1.00;;
12603;SDS011;6367;52.508;13.284;2023-12-20T14:51:14;1.17;;;0.70;;
12603;SDS011;6367;52.508;13.284;2023-12-20T14:53:39;1.40;;;0.70;;